Time;durP1;ratioP1;P1;durP2;ratioP2;P2;SDS_P1;SDS_P2;PMS_P1;PMS_P2;Temp;Humidity;BMP_temperature;BMP_pressure;BME280_temperature;BME280_humidity;BME280_pressure;Samples;Min_cycle;Max_cycle;Signal;HPM_P1;HPM_P2
2022/05/19 00:01:48;;;;;;;34.22;25.13;;;17.40;99.90;;;;;;5050274;28;20079;-79
2022/05/19 00:04:14;;;;;;;34.05;24.90;;;17.40;99.90;;;;;;5017002;28;20053;-78
2022/05/19 00:06:40;;;;;;;38.60;26.88;;;17.40;99.90;;;;;;5054329;28;20109;-78
2022/05/19 00:09:06;;;;;;;37.47;27.63;;;17.40;99.90;;;;;;5021448;28;20076;-79
2022/05/19 00:11:32;;;;;;;39.55;27.50;;;17.50;99.90;;;;;;5028508;28;20045;-78
2022/05/19 00:13:58;;;;;;;38.05;27.77;;;17.50;99.90;;;;;;5044799;28;20053;-78
2022/05/19 00:16:24;;;;;;;38.63;27.63;;;17.50;99.90;;;;;;5008736;28;20056;-78
2022/05/19 00:18:50;;;;;;;41.22;29.33;;;17.50;99.90;;;;;;5053885;28;20060;-79
2022/05/19 00:21:16;;;;;;;46.13;31.35;;;17.50;99.90;;;;;;5022642;28;20040;-79
2022/05/19 00:23:42;;;;;;;39.95;27.77;;;17.40;99.90;;;;;;5012527;28;20132;-78
2022/05/19 00:26:07;;;;;;;41.22;29.08;;;17.40;99.90;;;;;;5040445;28;20113;-79
2022/05/19 00:28:33;;;;;;;41.83;31.95;;;17.40;99.90;;;;;;5029302;28;20037;-79
2022/05/19 00:30:59;;;;;;;49.92;33.03;;;17.30;99.90;;;;;;5031742;28;20444;-79
2022/05/19 00:33:25;;;;;;;47.60;32.08;;;17.20;99.90;;;;;;5038730;28;20060;-79
2022/05/19 00:35:50;;;;;;;45.40;32.65;;;17.20;99.90;;;;;;5040136;28;20060;-78
2022/05/19 00:38:16;;;;;;;50.42;33.70;;;17.20;99.90;;;;;;5046662;28;20045;-79
2022/05/19 00:40:51;;;;;;;52.88;36.22;;;17.10;99.90;;;;;;5029117;28;20044;-78
2022/05/19 00:43:30;;;;;;;49.45;36.65;;;17.10;99.90;;;;;;5067927;28;20522;-78
2022/05/19 00:46:20;;;;;;;50.47;36.38;;;17.10;99.90;;;;;;5046435;28;20052;-79
2022/05/19 00:48:55;;;;;;;55.42;39.38;;;17.00;99.90;;;;;;5036746;28;20064;-79
2022/05/19 00:51:45;;;;;;;58.17;40.58;;;17.00;99.90;;;;;;5035201;28;20048;-79
2022/05/19 00:54:20;;;;;;;57.97;40.92;;;16.90;99.90;;;;;;5022114;28;20049;-78
2022/05/19 00:56:58;;;;;;;58.22;43.75;;;16.90;99.90;;;;;;5020540;28;20052;-78
2022/05/19 00:59:29;;;;;;;62.65;45.85;;;16.80;99.90;;;;;;5037803;28;20053;-76
2022/05/19 01:01:56;;;;;;;64.78;47.17;;;16.80;99.90;;;;;;5037687;28;20049;-77
2022/05/19 01:04:36;;;;;;;64.13;46.70;;;16.80;99.90;;;;;;5030291;28;20053;-77
2022/05/19 01:07:07;;;;;;;66.50;47.80;;;16.80;99.90;;;;;;5039214;28;20067;-77
2022/05/19 01:09:34;;;;;;;67.38;47.13;;;16.70;99.90;;;;;;5059892;28;20047;-77
2022/05/19 01:12:03;;;;;;;69.38;45.83;;;16.60;99.90;;;;;;5040012;28;20056;-77
2022/05/19 01:14:30;;;;;;;65.10;44.75;;;16.60;99.90;;;;;;5039334;28;20053;-76
2022/05/19 01:16:57;;;;;;;61.78;45.47;;;16.50;99.90;;;;;;5029955;28;20144;-77
2022/05/19 01:19:36;;;;;;;65.97;45.63;;;16.50;99.90;;;;;;5028071;28;20042;-77
2022/05/19 01:22:42;;;;;;;67.32;47.20;;;16.50;99.90;;;;;;5027733;28;20044;-76
2022/05/19 01:25:18;;;;;;;63.63;46.53;;;16.50;99.90;;;;;;5037979;28;20049;-76
2022/05/19 01:27:44;;;;;;;68.30;48.03;;;16.40;99.90;;;;;;5045502;28;20045;-76
2022/05/19 01:30:10;;;;;;;68.13;47.83;;;16.40;99.90;;;;;;5012428;28;20125;-76
2022/05/19 01:32:36;;;;;;;65.70;48.40;;;16.40;99.90;;;;;;5036029;28;20214;-76
2022/05/19 01:35:04;;;;;;;68.22;47.90;;;16.40;99.90;;;;;;5029688;28;20072;-76
2022/05/19 01:37:30;;;;;;;66.93;48.78;;;16.40;99.90;;;;;;5028869;28;20037;-75
2022/05/19 01:40:04;;;;;;;71.88;51.25;;;16.30;99.90;;;;;;5036927;28;20128;-75
2022/05/19 01:42:42;;;;;;;67.32;50.10;;;16.30;99.90;;;;;;5048162;28;20079;-76
2022/05/19 01:45:27;;;;;;;68.97;50.33;;;16.20;99.90;;;;;;5026626;28;20083;-75
2022/05/19 01:47:55;;;;;;;74.10;52.72;;;16.20;99.90;;;;;;5038516;28;20064;-75
2022/05/19 01:50:46;;;;;;;72.32;52.45;;;16.20;99.90;;;;;;5048400;28;20075;-77
2022/05/19 01:53:38;;;;;;;80.10;54.35;;;16.20;99.90;;;;;;5047734;28;20049;-78
2022/05/19 01:56:31;;;;;;;77.32;54.53;;;16.20;99.90;;;;;;5029589;28;20045;-78
2022/05/19 01:59:16;;;;;;;78.85;56.13;;;16.10;99.90;;;;;;5041450;28;20154;-78
2022/05/19 02:01:46;;;;;;;79.22;56.35;;;16.10;99.90;;;;;;5030456;28;20080;-78
2022/05/19 02:04:28;;;;;;;83.20;56.97;;;16.10;99.90;;;;;;5036116;28;20489;-78
2022/05/19 02:07:04;;;;;;;79.35;56.30;;;16.10;99.90;;;;;;5024314;28;20132;-79
2022/05/19 02:09:40;;;;;;;83.70;58.13;;;16.10;99.90;;;;;;5021324;28;20936;-78
2022/05/19 02:12:08;;;;;;;79.45;56.22;;;16.10;99.90;;;;;;5039680;28;20083;-79
2022/05/19 02:14:48;;;;;;;83.53;58.45;;;16.10;99.90;;;;;;5031883;28;20109;-79
2022/05/19 02:17:19;;;;;;;81.65;58.17;;;16.00;99.90;;;;;;5026348;28;20037;-79
2022/05/19 02:19:49;;;;;;;79.18;58.50;;;16.00;99.90;;;;;;5045755;28;20060;-80
2022/05/19 02:22:18;;;;;;;80.75;57.75;;;16.00;99.90;;;;;;5032669;28;20852;-79
2022/05/19 02:25:11;;;;;;;80.22;57.33;;;16.00;99.90;;;;;;5026261;28;20045;-79
2022/05/19 02:27:50;;;;;;;80.18;58.45;;;15.90;99.90;;;;;;5048879;28;20488;-79
2022/05/19 02:30:22;;;;;;;84.35;59.60;;;15.90;99.90;;;;;;5042177;28;20403;-79
2022/05/19 02:32:48;;;;;;;84.65;59.33;;;15.90;99.90;;;;;;5050370;28;20075;-79
2022/05/19 02:35:15;;;;;;;82.57;59.20;;;15.90;99.90;;;;;;5037731;28;21745;-79
2022/05/19 02:37:41;;;;;;;83.10;59.55;;;15.90;99.90;;;;;;5058929;28;20056;-79
2022/05/19 02:40:08;;;;;;;81.50;59.60;;;15.90;99.90;;;;;;5037486;28;20057;-80
2022/05/19 02:42:34;;;;;;;86.63;58.53;;;16.00;99.90;;;;;;5038911;28;20049;-79
2022/05/19 02:44:59;;;;;;;83.55;58.17;;;15.90;99.90;;;;;;5027005;28;20080;-79
2022/05/19 02:47:25;;;;;;;84.13;58.85;;;15.90;99.90;;;;;;5028412;28;20058;-79
2022/05/19 02:49:51;;;;;;;84.90;58.63;;;15.90;99.90;;;;;;5018849;28;20173;-79
2022/05/19 02:52:17;;;;;;;81.45;57.90;;;15.90;99.90;;;;;;4993218;28;20050;-79
2022/05/19 02:54:42;;;;;;;82.60;59.60;;;15.90;99.90;;;;;;5035823;28;20686;-79
2022/05/19 02:57:08;;;;;;;82.13;58.55;;;15.90;99.90;;;;;;5037693;28;20411;-79
2022/05/19 02:59:34;;;;;;;85.00;60.35;;;15.90;99.90;;;;;;5041022;28;20053;-78
2022/05/19 03:02:00;;;;;;;83.13;60.92;;;15.90;99.90;;;;;;5026615;28;20053;-79
2022/05/19 03:04:26;;;;;;;88.25;59.95;;;15.90;99.90;;;;;;5021400;28;20048;-78
2022/05/19 03:06:52;;;;;;;83.13;60.78;;;15.90;99.90;;;;;;5018776;28;20045;-79
2022/05/19 03:09:18;;;;;;;84.43;59.97;;;16.00;99.90;;;;;;5018136;28;20084;-79
2022/05/19 03:11:44;;;;;;;83.60;60.03;;;16.00;99.90;;;;;;5032559;28;20042;-77
2022/05/19 03:14:09;;;;;;;87.13;59.83;;;16.00;99.90;;;;;;5031765;28;20053;-77
2022/05/19 03:16:37;;;;;;;80.63;58.53;;;16.00;99.90;;;;;;5028949;28;20556;-77
2022/05/19 03:19:03;;;;;;;84.20;60.15;;;16.00;99.90;;;;;;5037599;28;20048;-77
2022/05/19 03:21:29;;;;;;;86.47;59.33;;;16.00;99.90;;;;;;5027442;28;20041;-76
2022/05/19 03:23:54;;;;;;;87.00;60.35;;;16.00;99.90;;;;;;5031575;28;20048;-77
2022/05/19 03:26:20;;;;;;;82.90;57.67;;;16.00;99.90;;;;;;5023887;28;20045;-77
2022/05/19 03:28:46;;;;;;;80.35;58.35;;;16.10;99.90;;;;;;5034776;28;20536;-77
2022/05/19 03:31:11;;;;;;;84.35;57.83;;;16.00;99.90;;;;;;5001802;28;20033;-78
2022/05/19 03:33:37;;;;;;;81.93;56.42;;;16.10;99.90;;;;;;5032855;28;20092;-78
2022/05/19 03:36:04;;;;;;;79.80;57.88;;;16.10;99.90;;;;;;5015385;28;20045;-79
2022/05/19 03:38:30;;;;;;;87.45;58.17;;;16.00;99.90;;;;;;5019679;28;20079;-77
2022/05/19 03:40:56;;;;;;;80.90;57.83;;;16.10;99.90;;;;;;4994526;28;20045;-77
2022/05/19 03:43:21;;;;;;;86.50;61.17;;;16.00;99.90;;;;;;5013919;28;20131;-77
2022/05/19 03:45:47;;;;;;;82.28;57.60;;;16.00;99.90;;;;;;5008917;28;21022;-78
2022/05/19 03:48:15;;;;;;;86.47;59.90;;;16.00;99.90;;;;;;5023429;28;20080;-78
2022/05/19 03:50:45;;;;;;;80.18;58.83;;;16.00;99.90;;;;;;5049474;28;20057;-78
2022/05/19 03:53:11;;;;;;;82.82;58.95;;;16.10;99.90;;;;;;5005562;28;20056;-77
2022/05/19 03:55:37;;;;;;;85.07;59.30;;;16.10;99.90;;;;;;5011323;28;20045;-77
2022/05/19 03:58:03;;;;;;;91.93;62.80;;;16.00;99.90;;;;;;5039389;28;20088;-78
2022/05/19 04:00:29;;;;;;;87.60;61.50;;;16.10;99.90;;;;;;5031691;28;20175;-78
2022/05/19 04:02:54;;;;;;;84.45;59.83;;;16.00;99.90;;;;;;5018708;28;20089;-78
2022/05/19 04:05:20;;;;;;;82.93;58.72;;;16.00;99.90;;;;;;5022037;28;20049;-77
2022/05/19 04:07:46;;;;;;;83.80;59.20;;;16.00;99.90;;;;;;5004218;28;20055;-77
2022/05/19 04:10:12;;;;;;;85.65;61.67;;;15.90;99.90;;;;;;5033614;28;20052;-77
2022/05/19 04:12:39;;;;;;;87.55;60.92;;;15.90;99.90;;;;;;5038316;28;20061;-77
2022/05/19 04:15:05;;;;;;;90.20;61.17;;;15.90;99.90;;;;;;5057299;28;20049;-78
2022/05/19 04:17:34;;;;;;;78.50;56.47;;;15.90;99.90;;;;;;5023712;28;20067;-77
2022/05/19 04:20:06;;;;;;;82.32;59.20;;;15.90;99.90;;;;;;5027884;28;20042;-77
2022/05/19 04:22:32;;;;;;;81.07;57.95;;;15.90;99.90;;;;;;5029385;28;20056;-77
2022/05/19 04:25:00;;;;;;;84.43;60.08;;;15.90;99.90;;;;;;5032229;28;20049;-77
2022/05/19 04:27:30;;;;;;;85.15;59.13;;;15.90;99.90;;;;;;5040984;28;20044;-77
2022/05/19 04:29:56;;;;;;;88.93;62.13;;;16.00;99.90;;;;;;5008078;28;20085;-77
2022/05/19 04:32:21;;;;;;;89.40;63.47;;;16.00;99.90;;;;;;5056512;28;20055;-77
2022/05/19 04:34:47;;;;;;;89.82;61.35;;;16.00;99.90;;;;;;5040733;28;20045;-78
2022/05/19 04:37:13;;;;;;;86.95;60.67;;;16.10;99.90;;;;;;5026082;28;20112;-77
2022/05/19 04:39:39;;;;;;;85.50;61.53;;;16.20;99.90;;;;;;5026200;28;20049;-78
2022/05/19 04:42:09;;;;;;;84.18;60.78;;;16.20;99.90;;;;;;5024377;28;20037;-77
2022/05/19 04:44:35;;;;;;;87.03;60.60;;;16.30;99.90;;;;;;5039284;28;20088;-77
2022/05/19 04:47:02;;;;;;;80.65;60.25;;;16.40;99.90;;;;;;5050318;28;20057;-77
2022/05/19 04:49:28;;;;;;;84.03;61.60;;;16.50;99.90;;;;;;5039594;28;20522;-77
2022/05/19 04:51:54;;;;;;;82.82;60.30;;;16.60;99.90;;;;;;5029950;28;20076;-77
2022/05/19 04:54:19;;;;;;;87.05;61.97;;;16.70;99.90;;;;;;5028380;28;20069;-78
2022/05/19 04:56:45;;;;;;;85.93;60.92;;;16.80;99.90;;;;;;5036135;28;20045;-78
2022/05/19 04:59:14;;;;;;;83.82;60.28;;;16.80;99.90;;;;;;5017027;28;20051;-77
2022/05/19 05:01:45;;;;;;;85.68;62.20;;;16.90;99.90;;;;;;5040347;28;20041;-77
2022/05/19 05:04:13;;;;;;;88.43;62.50;;;16.90;99.90;;;;;;5067985;28;20063;-77
2022/05/19 05:06:39;;;;;;;81.40;59.08;;;16.90;99.90;;;;;;5029699;28;20056;-77
2022/05/19 05:09:05;;;;;;;81.03;58.42;;;17.00;99.90;;;;;;5036451;28;20041;-77
2022/05/19 05:11:32;;;;;;;80.63;56.63;;;17.00;99.90;;;;;;5032766;28;20123;-77
2022/05/19 05:13:57;;;;;;;78.25;56.40;;;17.00;99.90;;;;;;5049577;28;20130;-78
2022/05/19 05:16:23;;;;;;;75.60;55.70;;;17.10;99.90;;;;;;4998598;28;20081;-78
2022/05/19 05:18:49;;;;;;;76.88;56.17;;;17.10;99.90;;;;;;5049557;28;20099;-77
2022/05/19 05:21:15;;;;;;;75.90;54.83;;;17.10;99.90;;;;;;5049943;28;20045;-80
2022/05/19 05:23:41;;;;;;;70.80;52.10;;;17.10;99.90;;;;;;5013662;28;20462;-79
2022/05/19 05:26:08;;;;;;;69.47;51.38;;;17.20;99.90;;;;;;5028792;28;20043;-81
2022/05/19 05:28:35;;;;;;;64.50;47.95;;;17.30;99.90;;;;;;5039814;28;20041;-80
2022/05/19 05:31:02;;;;;;;61.72;49.08;;;17.30;99.90;;;;;;5053551;28;20091;-80
2022/05/19 05:33:28;;;;;;;60.55;46.85;;;17.40;99.90;;;;;;5004135;28;20212;-80
2022/05/19 05:35:54;;;;;;;62.20;46.67;;;17.50;99.90;;;;;;5047638;28;20060;-81
2022/05/19 05:38:20;;;;;;;56.65;43.95;;;17.60;99.90;;;;;;5047728;28;20053;-81
2022/05/19 05:40:50;;;;;;;60.78;44.55;;;17.80;99.90;;;;;;5031468;28;20087;-83
2022/05/19 05:43:20;;;;;;;60.13;43.33;;;17.80;99.90;;;;;;5056841;28;20516;-81
2022/05/19 05:45:47;;;;;;;52.85;40.95;;;17.90;99.90;;;;;;5047077;28;20288;-81
2022/05/19 05:48:13;;;;;;;53.28;41.63;;;18.00;99.90;;;;;;5036441;28;20136;-80
2022/05/19 05:50:39;;;;;;;52.33;39.15;;;18.10;99.90;;;;;;5004961;28;20080;-82
2022/05/19 05:53:07;;;;;;;50.83;39.33;;;18.20;99.90;;;;;;5019784;28;20045;-80
2022/05/19 05:55:34;;;;;;;51.67;39.42;;;18.40;99.90;;;;;;5051499;28;20072;-81
2022/05/19 05:58:03;;;;;;;42.70;32.88;;;18.60;99.90;;;;;;5043146;28;20043;-80
2022/05/19 06:00:29;;;;;;;45.00;34.50;;;18.80;99.90;;;;;;5037301;28;20134;-81
2022/05/19 06:02:54;;;;;;;45.70;32.50;;;19.00;99.90;;;;;;5035442;28;20042;-81
2022/05/19 06:05:20;;;;;;;40.70;29.40;;;19.30;99.90;;;;;;5027091;28;20041;-80
2022/05/19 06:07:46;;;;;;;38.08;30.50;;;19.60;99.90;;;;;;5044631;28;20705;-82
2022/05/19 06:10:13;;;;;;;37.13;28.65;;;19.80;99.90;;;;;;5022523;28;20033;-85
2022/05/19 06:12:39;;;;;;;36.45;28.63;;;20.00;99.90;;;;;;5029464;28;20038;-81
2022/05/19 06:15:06;;;;;;;34.85;27.05;;;20.00;99.90;;;;;;5033107;28;20105;-80
2022/05/19 06:17:32;;;;;;;31.00;24.17;;;20.10;99.90;;;;;;5003033;28;20077;-81
2022/05/19 06:19:58;;;;;;;29.52;23.42;;;20.30;99.90;;;;;;5036628;28;20052;-81
2022/05/19 06:22:23;;;;;;;27.67;21.65;;;20.30;99.90;;;;;;5003657;28;20108;-81
2022/05/19 06:24:50;;;;;;;28.00;21.25;;;20.40;99.90;;;;;;5019466;28;20682;-81
2022/05/19 06:27:16;;;;;;;25.60;19.65;;;20.40;99.90;;;;;;5010456;28;20045;-82
2022/05/19 06:29:43;;;;;;;25.30;19.00;;;20.40;99.90;;;;;;5022588;28;20053;-82
2022/05/19 06:32:09;;;;;;;22.25;17.58;;;20.50;99.90;;;;;;5031226;28;20055;-81
2022/05/19 06:34:36;;;;;;;24.50;18.50;;;20.50;99.90;;;;;;5031707;28;20063;-82
2022/05/19 06:37:02;;;;;;;20.33;15.90;;;20.50;99.90;;;;;;5034965;28;20046;-80
2022/05/19 06:39:29;;;;;;;21.35;15.15;;;20.50;99.90;;;;;;5033018;28;20053;-81
2022/05/19 06:42:00;;;;;;;19.10;15.10;;;20.60;99.90;;;;;;5003790;28;20049;-81
2022/05/19 06:44:29;;;;;;;17.67;15.00;;;20.70;99.90;;;;;;5065273;28;20045;-81
2022/05/19 06:46:55;;;;;;;20.15;15.88;;;20.70;99.90;;;;;;5047354;28;20065;-82
2022/05/19 06:49:21;;;;;;;19.65;15.55;;;20.90;99.90;;;;;;5034475;28;20459;-82
2022/05/19 06:51:46;;;;;;;18.10;15.05;;;21.00;99.90;;;;;;5030455;28;20071;-79
2022/05/19 06:54:12;;;;;;;21.13;15.90;;;21.00;99.90;;;;;;5033915;28;20144;-83
2022/05/19 06:56:38;;;;;;;24.30;14.50;;;21.10;99.90;;;;;;5009571;28;20037;-84
2022/05/19 06:59:05;;;;;;;19.40;15.82;;;21.30;99.90;;;;;;5037325;28;20067;-84
2022/05/19 07:01:31;;;;;;;23.83;16.40;;;21.30;99.90;;;;;;5037180;28;20045;-84
2022/05/19 07:03:57;;;;;;;24.05;15.30;;;21.20;99.90;;;;;;5059994;28;20660;-84
2022/05/19 07:06:24;;;;;;;20.35;14.80;;;21.00;99.90;;;;;;5045558;28;20044;-84
2022/05/19 07:08:50;;;;;;;21.00;16.15;;;21.00;99.90;;;;;;5017262;28;20072;-84
2022/05/19 07:11:24;;;;;;;21.13;16.63;;;21.00;99.90;;;;;;5018927;28;20045;-84
2022/05/19 07:14:05;;;;;;;20.95;16.25;;;20.80;99.90;;;;;;5028795;28;20045;-84
2022/05/19 07:16:32;;;;;;;19.98;16.27;;;20.70;99.90;;;;;;5045883;28;20056;-84
2022/05/19 07:21:44;;;;;;;21.83;16.25;;;20.50;99.90;;;;;;5045758;28;20041;-84
2022/05/19 07:24:18;;;;;;;22.08;16.80;;;20.50;99.90;;;;;;5027127;28;20056;-85
2022/05/19 07:26:46;;;;;;;21.05;17.50;;;20.70;99.90;;;;;;5035757;28;20044;-85
2022/05/19 07:29:12;;;;;;;23.83;17.83;;;20.90;99.90;;;;;;5037581;28;20400;-84
2022/05/19 07:31:38;;;;;;;22.35;17.70;;;20.90;99.90;;;;;;5035475;28;20033;-84
2022/05/19 07:34:05;;;;;;;22.30;17.00;;;20.90;99.90;;;;;;5025918;28;20033;-84
2022/05/19 07:36:32;;;;;;;21.00;16.67;;;20.90;99.90;;;;;;5017422;28;20068;-84
2022/05/19 07:38:59;;;;;;;24.85;15.93;;;20.80;99.90;;;;;;5024199;28;20407;-85
2022/05/19 07:41:30;;;;;;;23.83;17.23;;;20.80;99.90;;;;;;5029278;28;20059;-84
2022/05/19 07:43:57;;;;;;;20.40;15.45;;;20.70;99.90;;;;;;5025196;28;20050;-85
2022/05/19 07:46:25;;;;;;;20.70;16.10;;;20.70;99.90;;;;;;5034504;28;20045;-84
2022/05/19 07:48:54;;;;;;;19.25;15.65;;;20.70;99.90;;;;;;5018442;28;20061;-83
2022/05/19 07:51:21;;;;;;;20.15;15.55;;;20.70;99.90;;;;;;5042304;28;20060;-83
2022/05/19 07:53:48;;;;;;;23.08;14.82;;;20.60;99.90;;;;;;5027395;28;20045;-82
2022/05/19 07:56:14;;;;;;;21.45;15.50;;;20.50;99.90;;;;;;5013236;28;20044;-82
2022/05/19 07:58:40;;;;;;;19.75;15.07;;;20.40;99.90;;;;;;5014238;28;20049;-82
2022/05/19 08:01:07;;;;;;;23.58;16.70;;;20.30;99.90;;;;;;5056947;28;20049;-82
2022/05/19 08:03:32;;;;;;;23.70;16.80;;;20.20;99.90;;;;;;5027848;28;20112;-83
2022/05/19 08:05:58;;;;;;;27.48;18.85;;;20.10;99.90;;;;;;5016734;28;20072;-83
2022/05/19 08:08:24;;;;;;;29.17;20.40;;;19.90;99.90;;;;;;5027647;28;20616;-83
2022/05/19 08:10:52;;;;;;;24.25;19.88;;;19.70;99.90;;;;;;5044598;28;20316;-83
2022/05/19 08:16:02;;;;;;;28.73;20.85;;;19.60;99.90;;;;;;5038907;28;20397;-83
2022/05/19 08:18:28;;;;;;;27.20;21.83;;;19.50;99.90;;;;;;5033171;28;20080;-83
2022/05/19 08:21:02;;;;;;;31.63;23.52;;;19.50;99.90;;;;;;5064554;28;20060;-83
2022/05/19 08:23:34;;;;;;;27.73;22.58;;;19.50;99.90;;;;;;5071425;28;20040;-83
2022/05/19 08:26:00;;;;;;;31.27;23.45;;;19.40;99.90;;;;;;5038908;28;20056;-83
2022/05/19 08:28:29;;;;;;;29.85;22.20;;;19.30;99.90;;;;;;5037116;28;20041;-83
2022/05/19 08:30:59;;;;;;;28.38;22.98;;;19.30;99.90;;;;;;5053232;28;20090;-83
2022/05/19 08:33:26;;;;;;;28.60;23.40;;;19.20;99.90;;;;;;5038287;28;20034;-84
2022/05/19 08:35:52;;;;;;;32.08;24.63;;;19.10;99.90;;;;;;5038093;28;20032;-84
2022/05/19 08:38:19;;;;;;;32.60;27.10;;;18.90;99.90;;;;;;5038992;28;20072;-83
2022/05/19 08:40:50;;;;;;;36.30;26.85;;;18.90;99.90;;;;;;5036292;28;20076;-83
2022/05/19 08:43:19;;;;;;;37.03;28.50;;;18.90;99.90;;;;;;5035471;28;20052;-84
2022/05/19 08:45:58;;;;;;;38.47;29.25;;;18.90;99.90;;;;;;5032883;28;20037;-84
2022/05/19 08:48:26;;;;;;;36.60;29.23;;;19.00;99.90;;;;;;5026482;28;20071;-83
2022/05/19 08:51:05;;;;;;;36.65;29.75;;;19.10;99.90;;;;;;5023437;28;20057;-83
2022/05/19 08:53:36;;;;;;;36.08;29.52;;;19.20;99.90;;;;;;5033373;28;20045;-83
2022/05/19 08:56:25;;;;;;;40.97;30.00;;;19.20;99.90;;;;;;5034303;28;20086;-83
2022/05/19 08:58:57;;;;;;;39.53;31.05;;;19.30;99.90;;;;;;5046472;28;20033;-83
2022/05/19 09:01:36;;;;;;;35.15;29.58;;;19.50;99.90;;;;;;5031356;28;20041;-83
2022/05/19 09:04:24;;;;;;;39.17;30.92;;;19.50;99.90;;;;;;5039196;28;20045;-83
2022/05/19 09:09:59;;;;;;;38.38;31.45;;;19.70;99.90;;;;;;5068038;28;20408;-83
2022/05/19 09:12:27;;;;;;;37.40;30.13;;;19.70;99.90;;;;;;5035746;28;20056;-83
2022/05/19 09:14:53;;;;;;;35.47;28.52;;;19.80;99.90;;;;;;5044606;28;20594;-83
2022/05/19 09:17:26;;;;;;;35.45;30.33;;;19.80;99.90;;;;;;5038890;28;20041;-83
2022/05/19 09:19:55;;;;;;;37.30;30.67;;;19.90;99.90;;;;;;5035944;28;20057;-83
2022/05/19 09:22:26;;;;;;;33.97;28.73;;;20.00;99.90;;;;;;5052400;28;20048;-83
2022/05/19 09:24:53;;;;;;;31.60;26.73;;;20.10;99.90;;;;;;5027546;28;20068;-82
2022/05/19 09:27:22;;;;;;;31.05;26.52;;;20.30;99.90;;;;;;5036007;28;20063;-82
2022/05/19 09:29:56;;;;;;;31.98;26.25;;;20.40;99.90;;;;;;5037212;28;20083;-83
2022/05/19 09:32:37;;;;;;;30.90;26.10;;;20.60;99.90;;;;;;5019300;28;20501;-83
2022/05/19 09:35:19;;;;;;;29.98;24.85;;;20.70;99.90;;;;;;5034745;28;20079;-84
2022/05/19 09:38:00;;;;;;;27.05;23.33;;;20.70;99.90;;;;;;5038496;28;20044;-83
2022/05/19 09:40:30;;;;;;;30.47;25.37;;;20.80;99.90;;;;;;5030978;28;20047;-83
2022/05/19 09:43:03;;;;;;;31.15;24.90;;;20.80;99.90;;;;;;5045363;28;20044;-83
2022/05/19 09:45:35;;;;;;;32.67;25.50;;;20.80;99.90;;;;;;5051605;28;20088;-83
2022/05/19 09:48:05;;;;;;;32.22;24.60;;;20.90;99.90;;;;;;5031154;28;20615;-84
2022/05/19 09:50:44;;;;;;;29.92;25.60;;;21.00;99.90;;;;;;5034044;28;20164;-83
2022/05/19 09:53:26;;;;;;;31.58;25.08;;;21.10;99.90;;;;;;5034822;28;20084;-84
2022/05/19 09:55:56;;;;;;;;;;;21.30;99.90;;;;;;5032603;28;20048;-83
2022/05/19 09:58:24;;;;;;;29.70;25.45;;;21.40;99.90;;;;;;5043339;28;20458;-83
2022/05/19 10:00:53;;;;;;;26.70;23.80;;;21.50;99.90;;;;;;5026466;28;20045;-84
2022/05/19 10:03:38;;;;;;;32.00;24.20;;;21.70;99.90;;;;;;5029743;28;20199;-83
2022/05/19 10:06:14;;;;;;;26.58;23.55;;;21.80;99.90;;;;;;5070107;28;20048;-83
2022/05/19 10:08:42;;;;;;;27.80;22.90;;;21.90;99.90;;;;;;5024805;28;20108;-83
2022/05/19 10:11:17;;;;;;;32.08;24.55;;;22.00;99.90;;;;;;5034326;28;20481;-83
2022/05/19 10:13:50;;;;;;;28.67;24.73;;;22.10;99.90;;;;;;5045428;28;20049;-83
2022/05/19 10:16:22;;;;;;;28.90;23.25;;;22.00;99.90;;;;;;5034415;28;20045;-83
2022/05/19 10:19:03;;;;;;;28.83;23.98;;;21.90;99.90;;;;;;5048592;28;20099;-83
2022/05/19 10:21:47;;;;;;;27.83;23.15;;;21.90;99.90;;;;;;5061892;28;20720;-83
2022/05/19 10:24:30;;;;;;;29.02;23.52;;;21.80;99.90;;;;;;5051648;28;20343;-83
2022/05/19 10:33:43;;;;;;;28.83;24.67;;;21.70;99.90;;;;;;5067577;28;20140;-83
2022/05/19 10:36:35;;;;;;;29.55;25.30;;;21.90;99.90;;;;;;5022179;28;20037;-83
2022/05/19 10:39:10;;;;;;;31.00;27.42;;;21.90;99.90;;;;;;5052955;28;20064;-83
2022/05/19 10:41:58;;;;;;;31.60;26.95;;;22.10;99.90;;;;;;5027292;28;20064;-82
2022/05/19 10:44:36;;;;;;;34.38;26.98;;;22.30;99.90;;;;;;5025138;28;20379;-82
2022/05/19 10:47:30;;;;;;;31.92;28.50;;;22.50;99.90;;;;;;5031209;28;20058;-83
2022/05/19 10:50:13;;;;;;;35.83;28.25;;;22.70;99.90;;;;;;5027632;28;20083;-83
2022/05/19 10:53:01;;;;;;;30.33;26.55;;;23.00;99.90;;;;;;5048926;28;20551;-83
2022/05/19 10:56:08;;;;;;;30.58;26.40;;;23.10;99.90;;;;;;5063710;28;20053;-82
2022/05/19 10:58:57;;;;;;;27.98;24.98;;;23.40;99.90;;;;;;5010192;28;20584;-82
2022/05/19 11:01:43;;;;;;;26.20;23.45;;;23.60;99.90;;;;;;5032911;28;20049;-82
2022/05/19 11:04:20;;;;;;;27.35;22.73;;;23.70;99.90;;;;;;5017875;28;20492;-83
2022/05/19 11:06:58;;;;;;;25.70;20.38;;;24.00;99.90;;;;;;5022880;28;20037;-82
2022/05/19 11:09:27;;;;;;;24.33;20.20;;;24.40;99.90;;;;;;5029368;28;20295;-82
2022/05/19 11:12:01;;;;;;;24.48;18.73;;;24.60;99.90;;;;;;5021953;28;20049;-84
2022/05/19 11:15:02;;;;;;;20.73;18.17;;;24.90;99.90;;;;;;5027619;28;20080;-81
2022/05/19 11:18:08;;;;;;;20.15;17.85;;;25.10;99.90;;;;;;5029794;28;20049;-83
2022/05/19 11:20:43;;;;;;;21.77;18.23;;;25.40;99.90;;;;;;5033681;28;20049;-82
2022/05/19 11:23:38;;;;;;;20.75;16.10;;;25.50;99.90;;;;;;5054557;28;20053;-83
2022/05/19 11:26:32;;;;;;;15.95;14.13;;;25.50;99.90;;;;;;5060297;28;20496;-83
2022/05/19 11:29:19;;;;;;;15.98;13.98;;;25.70;99.90;;;;;;5025604;28;20059;-83
2022/05/19 11:32:12;;;;;;;18.80;14.15;;;25.80;99.90;;;;;;5049287;28;20055;-81
2022/05/19 11:34:51;;;;;;;16.83;13.20;;;26.00;99.90;;;;;;5050274;28;20101;-82
2022/05/19 11:37:39;;;;;;;14.77;12.57;;;26.10;99.90;;;;;;5037462;28;20049;-83
2022/05/19 11:40:13;;;;;;;15.40;13.35;;;26.20;99.90;;;;;;5017947;28;20057;-83
2022/05/19 11:42:56;;;;;;;17.02;15.32;;;26.30;99.90;;;;;;5021751;28;20535;-83
2022/05/19 11:45:48;;;;;;;19.10;14.07;;;26.40;99.90;;;;;;5042911;28;20064;-83
2022/05/19 11:57:14;;;;;;;13.80;10.55;;;26.60;99.90;;;;;;5057739;28;20037;-83
2022/05/19 11:59:47;;;;;;;11.52;10.05;;;26.50;99.90;;;;;;5032981;28;20047;-82
2022/05/19 12:02:17;;;;;;;8.57;6.63;;;26.30;99.90;;;;;;5044055;28;20110;-83
2022/05/19 12:04:44;;;;;;;5.95;4.65;;;26.30;99.90;;;;;;5061207;28;20060;-83
2022/05/19 12:07:09;;;;;;;6.25;4.50;;;26.20;99.90;;;;;;5051348;28;20053;-82
2022/05/19 12:09:47;;;;;;;6.22;4.57;;;26.10;99.90;;;;;;5063338;28;20107;-83
2022/05/19 12:12:28;;;;;;;6.20;4.40;;;26.10;99.90;;;;;;5039520;28;20135;-83
2022/05/19 12:15:27;;;;;;;6.43;4.90;;;26.10;99.90;;;;;;5024639;28;20049;-83
2022/05/19 12:18:18;;;;;;;5.85;4.35;;;26.00;99.90;;;;;;5024568;28;20057;-83
2022/05/19 12:20:51;;;;;;;4.53;3.45;;;26.00;99.90;;;;;;5044666;28;20043;-83
2022/05/19 12:23:26;;;;;;;3.17;2.88;;;25.80;99.90;;;;;;5056088;28;20043;-82
2022/05/19 12:26:14;;;;;;;2.97;2.70;;;25.80;99.90;;;;;;5053072;28;20084;-83
2022/05/19 12:28:50;;;;;;;5.22;2.80;;;25.80;99.90;;;;;;5041839;28;20144;-82
2022/05/19 12:31:59;;;;;;;4.05;2.67;;;25.70;99.90;;;;;;5052233;28;20053;-82
2022/05/19 12:34:36;;;;;;;4.57;3.05;;;25.60;99.90;;;;;;5052575;28;20053;-82
2022/05/19 12:37:09;;;;;;;4.35;3.10;;;25.50;99.90;;;;;;5033667;28;20408;-82
2022/05/19 12:39:50;;;;;;;4.32;2.95;;;25.30;99.90;;;;;;5027743;28;20049;-82
2022/05/19 12:42:35;;;;;;;4.15;2.70;;;25.10;99.90;;;;;;5042782;28;20056;-81
2022/05/19 12:45:25;;;;;;;3.97;3.10;;;25.00;99.90;;;;;;5031241;28;20113;-82
2022/05/19 12:48:21;;;;;;;3.08;2.78;;;24.80;99.90;;;;;;5031552;28;20052;-82
2022/05/19 12:51:05;;;;;;;3.25;2.85;;;24.70;99.90;;;;;;5056890;28;20045;-81
2022/05/19 12:53:49;;;;;;;3.70;3.20;;;24.60;99.90;;;;;;5042388;28;20049;-82
2022/05/19 12:56:40;;;;;;;4.18;2.83;;;24.50;99.90;;;;;;5040321;28;20049;-82
2022/05/19 12:59:08;;;;;;;3.70;3.25;;;24.40;99.90;;;;;;5028850;28;20491;-82
2022/05/19 13:01:59;;;;;;;3.50;3.20;;;24.30;99.90;;;;;;5055134;28;20049;-82
2022/05/19 13:04:31;;;;;;;6.13;3.40;;;24.20;99.90;;;;;;5023531;28;20056;-82
2022/05/19 13:07:03;;;;;;;3.60;3.30;;;24.00;99.90;;;;;;5024233;28;20288;-82
2022/05/19 13:09:32;;;;;;;4.60;3.53;;;23.90;99.90;;;;;;5054078;28;20053;-82
2022/05/19 13:12:04;;;;;;;3.92;3.53;;;23.80;99.90;;;;;;5050494;28;20105;-83
2022/05/19 13:14:42;;;;;;;4.45;3.40;;;23.60;99.90;;;;;;5035259;28;20121;-83
2022/05/19 13:17:25;;;;;;;5.45;3.88;;;23.50;99.90;;;;;;5055305;28;20076;-83